Calliham, Texas
Current Conditions -  °F | °C
As of 8:15 PM on Wednesday 22 Oct 2014 (Local Time) from KPEZ Reporting Station
Clear Clear  
Wind Chill: 76°   Ceiling: Unl
Heat Index: 78°   Visibility: 10mi
Dew Point: 55°   Wind: 3mph
Humidity: 48%   Direction: 60°ENE
Pressure: 30.05"   Gusts: NA
Location:  28.48°N, 98.35°W
Report Text: KPEZ 230115Z AUTO 06003KT 10SM CLR 25/13 A3005 RMK AO2 T02470130
Loading
Personal Weather Stations






























Interactive Weather Map
Tropical Storm Tracking
New forecast layout! Learn more

10-Day Weather Forecast

Advertisements
Track Severe Weather on mobile